sensor_id;sensor_type;location;lat;lon;timestamp;pressure;altitude;pressure_sealevel;temperature;humidity
57900;BME280;60605;53.716;19.940;2023-05-29T00:00:59;100675.48;;;8.80;87.38
57900;BME280;60605;53.716;19.940;2023-05-29T00:06:03;100673.66;;;8.74;88.35
57900;BME280;60605;53.716;19.940;2023-05-29T00:11:06;100668.89;;;8.70;88.76
57900;BME280;60605;53.716;19.940;2023-05-29T00:16:10;100669.14;;;8.65;89.39
57900;BME280;60605;53.716;19.940;2023-05-29T00:21:13;100670.16;;;8.59;89.58
57900;BME280;60605;53.716;19.940;2023-05-29T00:26:17;100660.87;;;8.54;90.37
57900;BME280;60605;53.716;19.940;2023-05-29T00:31:20;100666.73;;;8.50;91.56
57900;BME280;60605;53.716;19.940;2023-05-29T00:36:24;100668.52;;;8.45;91.65
57900;BME280;60605;53.716;19.940;2023-05-29T00:41:28;100670.52;;;8.39;91.85
57900;BME280;60605;53.716;19.940;2023-05-29T00:46:32;100678.08;;;8.32;91.95
57900;BME280;60605;53.716;19.940;2023-05-29T00:51:36;100678.56;;;8.23;92.43
57900;BME280;60605;53.716;19.940;2023-05-29T00:56:40;100685.09;;;8.16;92.65
57900;BME280;60605;53.716;19.940;2023-05-29T01:01:49;100688.46;;;8.07;92.85
57900;BME280;60605;53.716;19.940;2023-05-29T01:06:54;100693.31;;;8.00;93.30
57900;BME280;60605;53.716;19.940;2023-05-29T01:12:10;100684.59;;;8.00;95.05
57900;BME280;60605;53.716;19.940;2023-05-29T01:17:43;100686.23;;;8.02;94.95
57900;BME280;60605;53.716;19.940;2023-05-29T01:28:26;100683.91;;;7.96;94.72
57900;BME280;60605;53.716;19.940;2023-05-29T01:33:30;100684.14;;;7.91;94.38
57900;BME280;60605;53.716;19.940;2023-05-29T01:38:33;100681.60;;;7.87;94.60
57900;BME280;60605;53.716;19.940;2023-05-29T01:43:37;100678.29;;;7.84;94.81
57900;BME280;60605;53.716;19.940;2023-05-29T01:48:44;100672.25;;;7.80;94.35
57900;BME280;60605;53.716;19.940;2023-05-29T01:53:47;100675.16;;;7.72;94.09
57900;BME280;60605;53.716;19.940;2023-05-29T01:58:51;100675.15;;;7.66;94.52
57900;BME280;60605;53.716;19.940;2023-05-29T02:03:55;100674.77;;;7.60;94.75
57900;BME280;60605;53.716;19.940;2023-05-29T02:08:58;100667.16;;;7.53;94.74
57900;BME280;60605;53.716;19.940;2023-05-29T02:14:01;100667.92;;;7.48;94.96
57900;BME280;60605;53.716;19.940;2023-05-29T02:19:06;100665.67;;;7.43;94.87
57900;BME280;60605;53.716;19.940;2023-05-29T02:24:11;100667.45;;;7.39;95.19
57900;BME280;60605;53.716;19.940;2023-05-29T02:29:14;100671.25;;;7.36;95.33
57900;BME280;60605;53.716;19.940;2023-05-29T02:34:18;100667.41;;;7.35;95.58
57900;BME280;60605;53.716;19.940;2023-05-29T02:39:21;100672.42;;;7.37;96.21
57900;BME280;60605;53.716;19.940;2023-05-29T02:44:26;100677.99;;;7.38;96.24
57900;BME280;60605;53.716;19.940;2023-05-29T02:49:29;100672.39;;;7.41;96.16
57900;BME280;60605;53.716;19.940;2023-05-29T02:54:33;100676.31;;;7.48;96.47
57900;BME280;60605;53.716;19.940;2023-05-29T02:59:37;100678.23;;;7.57;96.69
57900;BME280;60605;53.716;19.940;2023-05-29T03:04:40;100678.62;;;7.67;96.68
57900;BME280;60605;53.716;19.940;2023-05-29T03:09:44;100681.81;;;7.80;96.74
57900;BME280;60605;53.716;19.940;2023-05-29T03:14:47;100680.77;;;7.99;97.87
57900;BME280;60605;53.716;19.940;2023-05-29T03:19:51;100686.17;;;8.22;97.87
57900;BME280;60605;53.716;19.940;2023-05-29T03:24:54;100685.27;;;8.45;97.24
57900;BME280;60605;53.716;19.940;2023-05-29T03:29:59;100686.75;;;8.75;96.72
57900;BME280;60605;53.716;19.940;2023-05-29T03:35:03;100684.45;;;9.30;96.64
57900;BME280;60605;53.716;19.940;2023-05-29T03:40:07;100678.28;;;10.17;96.38
57900;BME280;60605;53.716;19.940;2023-05-29T03:45:10;100684.02;;;11.41;95.18
57900;BME280;60605;53.716;19.940;2023-05-29T03:50:14;100692.63;;;12.97;92.81
57900;BME280;60605;53.716;19.940;2023-05-29T03:55:18;100692.61;;;14.58;86.81
57900;BME280;60605;53.716;19.940;2023-05-29T04:00:22;100690.99;;;15.89;80.62
57900;BME280;60605;53.716;19.940;2023-05-29T04:05:25;100698.42;;;17.27;76.28
57900;BME280;60605;53.716;19.940;2023-05-29T04:10:29;100708.35;;;18.35;70.68
57900;BME280;60605;53.716;19.940;2023-05-29T04:15:32;100715.55;;;19.20;67.45
57900;BME280;60605;53.716;19.940;2023-05-29T04:20:36;100710.58;;;19.93;63.59
57900;BME280;60605;53.716;19.940;2023-05-29T04:25:39;100710.02;;;20.56;60.80
57900;BME280;60605;53.716;19.940;2023-05-29T04:30:43;100714.38;;;21.29;59.43
57900;BME280;60605;53.716;19.940;2023-05-29T04:35:47;100718.20;;;22.04;56.55
57900;BME280;60605;53.716;19.940;2023-05-29T04:40:52;100715.19;;;22.74;53.90
57900;BME280;60605;53.716;19.940;2023-05-29T04:46:03;100714.91;;;23.35;51.68
57900;BME280;60605;53.716;19.940;2023-05-29T04:51:06;100713.04;;;23.89;49.86
57900;BME280;60605;53.716;19.940;2023-05-29T04:56:16;100716.42;;;24.44;48.08
57900;BME280;60605;53.716;19.940;2023-05-29T05:01:20;100716.23;;;25.08;47.16
57900;BME280;60605;53.716;19.940;2023-05-29T05:06:25;100716.98;;;25.87;45.71
57900;BME280;60605;53.716;19.940;2023-05-29T05:11:28;100711.25;;;26.50;43.67
57900;BME280;60605;53.716;19.940;2023-05-29T05:16:31;100712.52;;;27.00;42.36
57900;BME280;60605;53.716;19.940;2023-05-29T05:21:36;100712.13;;;27.58;41.72
57900;BME280;60605;53.716;19.940;2023-05-29T05:26:40;100711.55;;;28.15;40.91
57900;BME280;60605;53.716;19.940;2023-05-29T05:31:44;100711.06;;;28.90;39.73
57900;BME280;60605;53.716;19.940;2023-05-29T05:36:47;100714.10;;;29.59;38.34
57900;BME280;60605;53.716;19.940;2023-05-29T05:41:52;100721.68;;;30.18;36.74
57900;BME280;60605;53.716;19.940;2023-05-29T05:46:55;100723.18;;;30.76;35.73
57900;BME280;60605;53.716;19.940;2023-05-29T05:51:58;100721.14;;;31.55;34.43
57900;BME280;60605;53.716;19.940;2023-05-29T05:57:02;100727.32;;;32.14;32.96
57900;BME280;60605;53.716;19.940;2023-05-29T06:02:06;100720.58;;;32.64;30.18
57900;BME280;60605;53.716;19.940;2023-05-29T06:07:11;100714.63;;;32.88;29.83
57900;BME280;60605;53.716;19.940;2023-05-29T06:12:14;100718.33;;;33.35;29.90
57900;BME280;60605;53.716;19.940;2023-05-29T06:17:18;100719.50;;;34.03;29.29
57900;BME280;60605;53.716;19.940;2023-05-29T06:22:25;100721.52;;;34.42;28.16
57900;BME280;60605;53.716;19.940;2023-05-29T06:27:28;100726.37;;;34.78;27.73
57900;BME280;60605;53.716;19.940;2023-05-29T06:32:31;100730.05;;;35.26;25.84
57900;BME280;60605;53.716;19.940;2023-05-29T06:37:35;100725.30;;;35.59;24.86
57900;BME280;60605;53.716;19.940;2023-05-29T06:42:38;100726.47;;;35.94;24.31
57900;BME280;60605;53.716;19.940;2023-05-29T06:47:42;100726.84;;;35.41;23.82
57900;BME280;60605;53.716;19.940;2023-05-29T06:52:45;100723.54;;;35.46;23.95
57900;BME280;60605;53.716;19.940;2023-05-29T06:57:49;100725.79;;;35.21;23.33
57900;BME280;60605;53.716;19.940;2023-05-29T07:02:52;100729.69;;;35.48;23.96
57900;BME280;60605;53.716;19.940;2023-05-29T07:07:56;100729.75;;;35.89;23.74
57900;BME280;60605;53.716;19.940;2023-05-29T07:12:59;100734.55;;;36.52;24.12
57900;BME280;60605;53.716;19.940;2023-05-29T07:18:03;100734.88;;;37.33;23.03
57900;BME280;60605;53.716;19.940;2023-05-29T07:23:07;100737.73;;;37.97;22.22
57900;BME280;60605;53.716;19.940;2023-05-29T07:28:11;100747.58;;;38.29;21.36
57900;BME280;60605;53.716;19.940;2023-05-29T07:33:24;100747.95;;;38.40;21.80
57900;BME280;60605;53.716;19.940;2023-05-29T07:38:28;100754.05;;;38.63;21.51
57900;BME280;60605;53.716;19.940;2023-05-29T07:43:31;100759.79;;;39.03;21.16
57900;BME280;60605;53.716;19.940;2023-05-29T07:48:37;100755.81;;;39.16;20.85
57900;BME280;60605;53.716;19.940;2023-05-29T07:53:40;100761.95;;;39.18;20.21
57900;BME280;60605;53.716;19.940;2023-05-29T07:58:43;100762.92;;;38.90;20.98
57900;BME280;60605;53.716;19.940;2023-05-29T08:03:47;100763.89;;;39.28;21.43
57900;BME280;60605;53.716;19.940;2023-05-29T08:08:50;100764.55;;;39.70;20.75
57900;BME280;60605;53.716;19.940;2023-05-29T08:13:55;100765.44;;;39.75;19.94
57900;BME280;60605;53.716;19.940;2023-05-29T08:18:58;100768.01;;;39.26;19.91
57900;BME280;60605;53.716;19.940;2023-05-29T08:24:03;100766.69;;;39.01;20.83
57900;BME280;60605;53.716;19.940;2023-05-29T08:29:09;100769.94;;;38.81;20.72
57900;BME280;60605;53.716;19.940;2023-05-29T08:34:14;100771.73;;;38.17;21.32
57900;BME280;60605;53.716;19.940;2023-05-29T08:39:17;100774.95;;;38.42;21.25
57900;BME280;60605;53.716;19.940;2023-05-29T08:44:22;100772.42;;;37.84;20.56
57900;BME280;60605;53.716;19.940;2023-05-29T08:49:27;100772.59;;;37.21;21.58
57900;BME280;60605;53.716;19.940;2023-05-29T08:54:32;100772.07;;;36.42;21.93
57900;BME280;60605;53.716;19.940;2023-05-29T08:59:37;100767.81;;;35.88;22.76
57900;BME280;60605;53.716;19.940;2023-05-29T09:04:43;100766.77;;;35.56;23.56
57900;BME280;60605;53.716;19.940;2023-05-29T09:09:51;100761.66;;;35.96;23.48
57900;BME280;60605;53.716;19.940;2023-05-29T09:14:55;100758.67;;;36.42;23.50
57900;BME280;60605;53.716;19.940;2023-05-29T09:20:00;100759.35;;;35.66;23.73
57900;BME280;60605;53.716;19.940;2023-05-29T09:25:05;100757.46;;;33.67;24.87
57900;BME280;60605;53.716;19.940;2023-05-29T09:30:10;100757.53;;;33.55;25.32
57900;BME280;60605;53.716;19.940;2023-05-29T09:35:13;100766.69;;;34.10;25.07
57900;BME280;60605;53.716;19.940;2023-05-29T09:40:16;100762.48;;;33.19;25.92
57900;BME280;60605;53.716;19.940;2023-05-29T09:45:22;100764.18;;;33.50;26.57
57900;BME280;60605;53.716;19.940;2023-05-29T09:50:26;100768.39;;;35.37;24.97
57900;BME280;60605;53.716;19.940;2023-05-29T09:55:31;100768.94;;;36.45;23.68
57900;BME280;60605;53.716;19.940;2023-05-29T10:00:35;100767.66;;;35.32;24.40
57900;BME280;60605;53.716;19.940;2023-05-29T10:05:39;100763.77;;;34.01;24.90
57900;BME280;60605;53.716;19.940;2023-05-29T10:10:45;100758.73;;;32.60;25.90
57900;BME280;60605;53.716;19.940;2023-05-29T10:15:51;100763.05;;;30.86;26.79
57900;BME280;60605;53.716;19.940;2023-05-29T10:20:59;100761.88;;;29.62;29.01
57900;BME280;60605;53.716;19.940;2023-05-29T10:26:12;100756.33;;;29.04;30.26
57900;BME280;60605;53.716;19.940;2023-05-29T10:31:22;100754.40;;;28.89;30.42
57900;BME280;60605;53.716;19.940;2023-05-29T10:36:35;100753.02;;;28.44;30.99
57900;BME280;60605;53.716;19.940;2023-05-29T10:41:41;100749.70;;;28.06;30.76
57900;BME280;60605;53.716;19.940;2023-05-29T10:51:48;100750.47;;;27.78;32.03
57900;BME280;60605;53.716;19.940;2023-05-29T10:57:00;100747.42;;;27.44;31.34
57900;BME280;60605;53.716;19.940;2023-05-29T11:02:05;100735.95;;;27.33;32.62
57900;BME280;60605;53.716;19.940;2023-05-29T11:07:50;100736.13;;;26.95;32.67
57900;BME280;60605;53.716;19.940;2023-05-29T11:12:56;100737.08;;;26.55;33.33
57900;BME280;60605;53.716;19.940;2023-05-29T11:18:06;100736.62;;;26.33;33.70
57900;BME280;60605;53.716;19.940;2023-05-29T11:23:15;100729.90;;;26.22;33.89
57900;BME280;60605;53.716;19.940;2023-05-29T11:28:20;100723.59;;;26.23;34.48
57900;BME280;60605;53.716;19.940;2023-05-29T11:33:26;100724.16;;;26.10;35.38
57900;BME280;60605;53.716;19.940;2023-05-29T11:38:30;100719.31;;;26.15;35.22
57900;BME280;60605;53.716;19.940;2023-05-29T11:43:34;100719.55;;;26.40;34.60
57900;BME280;60605;53.716;19.940;2023-05-29T11:48:45;100725.67;;;26.25;34.07
57900;BME280;60605;53.716;19.940;2023-05-29T11:53:49;100731.59;;;25.95;33.72
57900;BME280;60605;53.716;19.940;2023-05-29T11:58:58;100722.20;;;25.64;34.55
57900;BME280;60605;53.716;19.940;2023-05-29T12:04:13;100714.51;;;25.59;35.34
57900;BME280;60605;53.716;19.940;2023-05-29T12:09:27;100711.67;;;25.82;34.50
57900;BME280;60605;53.716;19.940;2023-05-29T12:14:32;100709.20;;;25.58;34.35
57900;BME280;60605;53.716;19.940;2023-05-29T12:19:36;100708.87;;;25.55;35.59
57900;BME280;60605;53.716;19.940;2023-05-29T12:24:40;100704.60;;;25.63;33.90
57900;BME280;60605;53.716;19.940;2023-05-29T12:29:45;100698.17;;;25.65;33.73
57900;BME280;60605;53.716;19.940;2023-05-29T12:34:49;100693.83;;;26.08;34.49
57900;BME280;60605;53.716;19.940;2023-05-29T12:40:11;100694.94;;;26.38;34.06
57900;BME280;60605;53.716;19.940;2023-05-29T12:45:18;100697.38;;;26.05;33.48
57900;BME280;60605;53.716;19.940;2023-05-29T12:50:30;100685.84;;;25.76;33.35
57900;BME280;60605;53.716;19.940;2023-05-29T12:55:35;100680.20;;;26.03;34.11
57900;BME280;60605;53.716;19.940;2023-05-29T13:00:43;100678.21;;;26.26;33.45
57900;BME280;60605;53.716;19.940;2023-05-29T13:05:48;100675.33;;;26.41;33.34
57900;BME280;60605;53.716;19.940;2023-05-29T13:10:52;100678.48;;;26.46;33.08
57900;BME280;60605;53.716;19.940;2023-05-29T13:15:55;100678.45;;;26.19;33.03
57900;BME280;60605;53.716;19.940;2023-05-29T13:21:01;100676.02;;;26.16;32.45
57900;BME280;60605;53.716;19.940;2023-05-29T13:26:05;100670.66;;;26.07;31.64
57900;BME280;60605;53.716;19.940;2023-05-29T13:31:08;100669.60;;;25.74;32.08
57900;BME280;60605;53.716;19.940;2023-05-29T13:36:12;100664.74;;;25.73;32.34
57900;BME280;60605;53.716;19.940;2023-05-29T13:41:15;100666.83;;;25.58;32.10
57900;BME280;60605;53.716;19.940;2023-05-29T13:46:19;100670.61;;;25.11;32.71
57900;BME280;60605;53.716;19.940;2023-05-29T13:51:22;100664.30;;;24.53;32.44
57900;BME280;60605;53.716;19.940;2023-05-29T13:56:25;100662.96;;;24.45;33.80
57900;BME280;60605;53.716;19.940;2023-05-29T14:01:31;100666.38;;;24.47;33.81
57900;BME280;60605;53.716;19.940;2023-05-29T14:06:35;100666.97;;;24.12;33.65
57900;BME280;60605;53.716;19.940;2023-05-29T14:11:40;100666.49;;;23.85;34.03
57900;BME280;60605;53.716;19.940;2023-05-29T14:16:43;100662.91;;;23.60;34.03
57900;BME280;60605;53.716;19.940;2023-05-29T14:21:48;100663.14;;;23.39;34.46
57900;BME280;60605;53.716;19.940;2023-05-29T14:26:52;100665.48;;;23.39;35.14
57900;BME280;60605;53.716;19.940;2023-05-29T14:31:55;100661.61;;;23.51;35.48
57900;BME280;60605;53.716;19.940;2023-05-29T14:36:59;100661.62;;;23.61;35.59
57900;BME280;60605;53.716;19.940;2023-05-29T14:42:03;100666.92;;;23.66;35.75
57900;BME280;60605;53.716;19.940;2023-05-29T14:47:06;100660.90;;;23.66;35.80
57900;BME280;60605;53.716;19.940;2023-05-29T14:52:09;100653.71;;;23.53;35.11
57900;BME280;60605;53.716;19.940;2023-05-29T14:57:13;100647.98;;;23.29;35.31
57900;BME280;60605;53.716;19.940;2023-05-29T15:02:16;100652.08;;;23.08;36.24
57900;BME280;60605;53.716;19.940;2023-05-29T15:07:20;100655.67;;;22.95;36.69
57900;BME280;60605;53.716;19.940;2023-05-29T15:12:23;100653.09;;;22.81;36.51
57900;BME280;60605;53.716;19.940;2023-05-29T15:17:27;100649.52;;;22.71;36.38
57900;BME280;60605;53.716;19.940;2023-05-29T15:22:30;100646.72;;;22.56;36.20
57900;BME280;60605;53.716;19.940;2023-05-29T15:27:34;100643.36;;;22.44;36.86
57900;BME280;60605;53.716;19.940;2023-05-29T15:32:39;100638.23;;;22.32;37.01
57900;BME280;60605;53.716;19.940;2023-05-29T15:37:46;100639.36;;;22.16;36.81
57900;BME280;60605;53.716;19.940;2023-05-29T15:42:50;100646.17;;;22.04;37.21
57900;BME280;60605;53.716;19.940;2023-05-29T15:47:53;100645.69;;;22.03;37.48
57900;BME280;60605;53.716;19.940;2023-05-29T15:52:57;100642.90;;;21.98;37.27
57900;BME280;60605;53.716;19.940;2023-05-29T15:58:01;100637.33;;;21.87;37.68
57900;BME280;60605;53.716;19.940;2023-05-29T16:03:05;100632.99;;;21.77;38.01
57900;BME280;60605;53.716;19.940;2023-05-29T16:08:09;100635.32;;;21.63;38.11
57900;BME280;60605;53.716;19.940;2023-05-29T16:13:13;100643.77;;;21.48;38.17
57900;BME280;60605;53.716;19.940;2023-05-29T16:18:16;100644.34;;;21.31;38.05
57900;BME280;60605;53.716;19.940;2023-05-29T16:23:20;100641.27;;;21.14;38.69
57900;BME280;60605;53.716;19.940;2023-05-29T16:28:23;100644.41;;;20.99;39.31
57900;BME280;60605;53.716;19.940;2023-05-29T16:33:27;100644.26;;;20.78;39.01
57900;BME280;60605;53.716;19.940;2023-05-29T16:38:31;100643.45;;;20.58;39.37
57900;BME280;60605;53.716;19.940;2023-05-29T16:43:35;100645.30;;;20.40;39.94
57900;BME280;60605;53.716;19.940;2023-05-29T16:48:38;100649.73;;;20.14;40.45
57900;BME280;60605;53.716;19.940;2023-05-29T16:53:44;100655.17;;;19.83;41.28
57900;BME280;60605;53.716;19.940;2023-05-29T16:58:47;100654.35;;;19.60;42.17
57900;BME280;60605;53.716;19.940;2023-05-29T17:03:51;100654.06;;;19.40;43.01
57900;BME280;60605;53.716;19.940;2023-05-29T17:08:55;100648.98;;;19.15;43.56
57900;BME280;60605;53.716;19.940;2023-05-29T17:13:59;100649.93;;;18.94;44.21
57900;BME280;60605;53.716;19.940;2023-05-29T17:19:02;100652.13;;;18.81;45.08
57900;BME280;60605;53.716;19.940;2023-05-29T17:24:06;100650.23;;;18.65;45.35
57900;BME280;60605;53.716;19.940;2023-05-29T17:29:11;100655.80;;;18.40;45.64
57900;BME280;60605;53.716;19.940;2023-05-29T17:34:18;100657.33;;;18.16;46.02
57900;BME280;60605;53.716;19.940;2023-05-29T17:39:22;100658.08;;;17.92;46.83
57900;BME280;60605;53.716;19.940;2023-05-29T17:44:26;100661.25;;;17.70;47.37
57900;BME280;60605;53.716;19.940;2023-05-29T17:49:29;100668.28;;;17.50;47.67
57900;BME280;60605;53.716;19.940;2023-05-29T17:54:33;100674.27;;;17.30;47.79
57900;BME280;60605;53.716;19.940;2023-05-29T17:59:37;100675.27;;;17.10;48.23
57900;BME280;60605;53.716;19.940;2023-05-29T18:04:40;100673.63;;;16.91;48.78
57900;BME280;60605;53.716;19.940;2023-05-29T18:09:44;100672.13;;;16.71;49.51
57900;BME280;60605;53.716;19.940;2023-05-29T18:14:49;100670.53;;;16.50;49.97
57900;BME280;60605;53.716;19.940;2023-05-29T18:19:54;100673.20;;;16.27;51.02
57900;BME280;60605;53.716;19.940;2023-05-29T18:24:57;100679.37;;;16.04;51.78
57900;BME280;60605;53.716;19.940;2023-05-29T18:30:01;100682.88;;;15.83;52.84
57900;BME280;60605;53.716;19.940;2023-05-29T18:35:05;100688.23;;;15.63;53.37
57900;BME280;60605;53.716;19.940;2023-05-29T18:40:09;100691.46;;;15.45;54.01
57900;BME280;60605;53.716;19.940;2023-05-29T18:45:14;100690.05;;;15.25;55.09
57900;BME280;60605;53.716;19.940;2023-05-29T18:50:18;100692.96;;;15.06;55.75
57900;BME280;60605;53.716;19.940;2023-05-29T18:55:22;100702.59;;;14.86;56.39
57900;BME280;60605;53.716;19.940;2023-05-29T19:00:26;100709.20;;;14.68;57.32
57900;BME280;60605;53.716;19.940;2023-05-29T19:05:30;100711.02;;;14.48;58.04
57900;BME280;60605;53.716;19.940;2023-05-29T19:10:33;100716.58;;;14.28;58.68
57900;BME280;60605;53.716;19.940;2023-05-29T19:15:38;100716.48;;;14.10;59.24
57900;BME280;60605;53.716;19.940;2023-05-29T19:20:43;100720.53;;;13.95;59.95
57900;BME280;60605;53.716;19.940;2023-05-29T19:25:47;100726.41;;;13.80;60.46
57900;BME280;60605;53.716;19.940;2023-05-29T19:30:51;100731.04;;;13.65;60.85
57900;BME280;60605;53.716;19.940;2023-05-29T19:35:54;100731.93;;;13.50;61.61
57900;BME280;60605;53.716;19.940;2023-05-29T19:40:58;100731.55;;;13.37;62.23
57900;BME280;60605;53.716;19.940;2023-05-29T19:46:01;100732.53;;;13.24;62.49
57900;BME280;60605;53.716;19.940;2023-05-29T19:51:09;100738.35;;;13.10;62.80
57900;BME280;60605;53.716;19.940;2023-05-29T19:56:13;100740.33;;;12.94;63.40
57900;BME280;60605;53.716;19.940;2023-05-29T20:01:16;100741.44;;;12.80;64.49
57900;BME280;60605;53.716;19.940;2023-05-29T20:06:21;100742.36;;;12.68;66.05
57900;BME280;60605;53.716;19.940;2023-05-29T20:11:26;100743.39;;;12.56;67.36
57900;BME280;60605;53.716;19.940;2023-05-29T20:16:33;100746.02;;;12.44;68.01
57900;BME280;60605;53.716;19.940;2023-05-29T20:21:37;100749.17;;;12.32;68.77
57900;BME280;60605;53.716;19.940;2023-05-29T20:26:41;100751.16;;;12.19;69.26
57900;BME280;60605;53.716;19.940;2023-05-29T20:31:46;100748.64;;;12.07;70.11
57900;BME280;60605;53.716;19.940;2023-05-29T20:36:49;100754.77;;;11.94;70.76
57900;BME280;60605;53.716;19.940;2023-05-29T20:41:53;100755.95;;;11.82;71.68
57900;BME280;60605;53.716;19.940;2023-05-29T20:47:01;100757.30;;;11.70;72.11
57900;BME280;60605;53.716;19.940;2023-05-29T20:52:05;100755.66;;;11.57;72.83
57900;BME280;60605;53.716;19.940;2023-05-29T20:57:10;100756.48;;;11.47;73.51
57900;BME280;60605;53.716;19.940;2023-05-29T21:02:14;100755.73;;;11.36;73.87
57900;BME280;60605;53.716;19.940;2023-05-29T21:07:18;100757.89;;;11.25;74.39
57900;BME280;60605;53.716;19.940;2023-05-29T21:12:22;100760.71;;;11.14;74.94
57900;BME280;60605;53.716;19.940;2023-05-29T21:17:26;100759.14;;;11.03;75.51
57900;BME280;60605;53.716;19.940;2023-05-29T21:22:30;100755.98;;;10.92;76.24
57900;BME280;60605;53.716;19.940;2023-05-29T21:27:34;100751.29;;;10.84;76.92
57900;BME280;60605;53.716;19.940;2023-05-29T21:32:38;100757.37;;;10.74;77.51
57900;BME280;60605;53.716;19.940;2023-05-29T21:37:41;100756.73;;;10.65;78.06
57900;BME280;60605;53.716;19.940;2023-05-29T21:42:46;100756.41;;;10.55;78.75
57900;BME280;60605;53.716;19.940;2023-05-29T21:47:50;100764.96;;;10.46;79.49
57900;BME280;60605;53.716;19.940;2023-05-29T21:52:54;100766.05;;;10.36;80.19
57900;BME280;60605;53.716;19.940;2023-05-29T21:57:58;100766.73;;;10.29;80.87
57900;BME280;60605;53.716;19.940;2023-05-29T22:03:01;100769.11;;;10.22;81.61
57900;BME280;60605;53.716;19.940;2023-05-29T22:08:06;100772.90;;;10.16;82.49
57900;BME280;60605;53.716;19.940;2023-05-29T22:13:11;100777.49;;;10.11;83.37
57900;BME280;60605;53.716;19.940;2023-05-29T22:18:14;100779.64;;;10.04;84.02
57900;BME280;60605;53.716;19.940;2023-05-29T22:23:18;100782.77;;;9.97;84.63
57900;BME280;60605;53.716;19.940;2023-05-29T22:28:21;100784.10;;;9.91;85.17
57900;BME280;60605;53.716;19.940;2023-05-29T22:33:24;100786.23;;;9.83;85.65
57900;BME280;60605;53.716;19.940;2023-05-29T22:38:28;100783.98;;;9.74;86.33
57900;BME280;60605;53.716;19.940;2023-05-29T22:43:31;100786.78;;;9.65;86.78
57900;BME280;60605;53.716;19.940;2023-05-29T22:48:36;100790.98;;;9.55;87.47
57900;BME280;60605;53.716;19.940;2023-05-29T22:53:42;100792.08;;;9.47;88.27
57900;BME280;60605;53.716;19.940;2023-05-29T22:58:52;100785.49;;;9.41;89.17
57900;BME280;60605;53.716;19.940;2023-05-29T23:03:58;100782.23;;;9.37;90.57
57900;BME280;60605;53.716;19.940;2023-05-29T23:09:01;100778.39;;;9.32;90.74
57900;BME280;60605;53.716;19.940;2023-05-29T23:14:04;100780.65;;;9.25;90.84
57900;BME280;60605;53.716;19.940;2023-05-29T23:19:08;100781.73;;;9.15;91.31
57900;BME280;60605;53.716;19.940;2023-05-29T23:24:12;100779.89;;;9.05;91.94
57900;BME280;60605;53.716;19.940;2023-05-29T23:29:16;100777.12;;;8.96;92.47
57900;BME280;60605;53.716;19.940;2023-05-29T23:34:20;100774.45;;;8.87;93.24
57900;BME280;60605;53.716;19.940;2023-05-29T23:39:23;100769.81;;;8.81;94.12
57900;BME280;60605;53.716;19.940;2023-05-29T23:44:27;100767.36;;;8.76;95.22
57900;BME280;60605;53.716;19.940;2023-05-29T23:49:30;100769.08;;;8.71;95.45
57900;BME280;60605;53.716;19.940;2023-05-29T23:54:34;100773.80;;;8.63;95.16
57900;BME280;60605;53.716;19.940;2023-05-29T23:59:37;100776.94;;;8.54;95.09
